Time;durP1;ratioP1;P1;durP2;ratioP2;P2;SDS_P1;SDS_P2;PMS_P1;PMS_P2;Temp;Humidity;BMP_temperature;BMP_pressure;BME280_temperature;BME280_humidity;BME280_pressure;Samples;Min_cycle;Max_cycle;Signal;HPM_P1;HPM_P2
2022/01/01 00:02:47;;;;;;;8.38;5.05;;;;;;;11.72;84.31;101570.66;6306246;22;20490;-71
2022/01/01 00:05:53;;;;;;;7.40;3.70;;;;;;;11.71;84.27;101565.44;6305298;22;20026;-71
2022/01/01 00:08:57;;;;;;;21.25;4.30;;;;;;;11.72;84.38;101569.81;6306642;22;20084;-71
2022/01/01 00:12:09;;;;;;;13.93;4.53;;;;;;;11.71;84.38;101568.94;6305622;22;20088;-71
2022/01/01 00:15:14;;;;;;;6.97;3.38;;;;;;;11.75;84.07;101565.28;6288259;22;20045;-71
2022/01/01 00:18:18;;;;;;;8.55;3.50;;;;;;;11.76;83.96;101572.22;6306790;22;20025;-70
2022/01/01 00:21:25;;;;;;;7.85;3.80;;;;;;;11.73;83.95;101572.34;6306357;22;20042;-70
2022/01/01 00:24:33;;;;;;;9.98;4.15;;;;;;;11.68;84.42;101573.44;6305766;22;20088;-70
2022/01/01 00:27:38;;;;;;;7.50;4.10;;;;;;;11.70;84.54;101566.38;6305507;22;20339;-71
2022/01/01 00:30:42;;;;;;;9.90;4.00;;;;;;;11.75;84.35;101562.66;6270209;22;20046;-71
2022/01/01 00:33:46;;;;;;;8.75;3.75;;;;;;;11.75;84.36;101570.53;6304446;22;20033;-69
2022/01/01 00:36:52;;;;;;;6.88;2.80;;;;;;;11.72;84.99;101565.41;6304767;22;20149;-72
2022/01/01 00:39:57;;;;;;;5.47;3.03;;;;;;;11.62;85.61;101569.31;6306856;22;20087;-71
2022/01/01 00:43:01;;;;;;;8.50;3.50;;;;;;;11.59;85.82;101567.66;6304673;22;20025;-71
2022/01/01 00:46:05;;;;;;;5.43;2.30;;;;;;;11.48;86.08;101566.38;6304444;22;20105;-71
2022/01/01 00:49:08;;;;;;;;;;;;;;;11.44;86.33;101565.66;6303890;22;20025;-71
2022/01/01 00:52:11;;;;;;;7.75;2.00;;;;;;;11.39;86.18;101563.22;6303708;22;20344;-71
2022/01/01 00:55:14;;;;;;;9.02;2.92;;;;;;;11.24;87.16;101558.56;6304816;22;20026;-71
2022/01/01 00:58:18;;;;;;;6.72;2.90;;;;;;;11.28;86.89;101554.06;6305551;22;20027;-71
2022/01/01 01:01:21;;;;;;;6.80;2.70;;;;;;;11.21;86.89;101563.94;6306851;22;20065;-71
2022/01/01 01:04:25;;;;;;;4.60;3.22;;;;;;;11.25;86.90;101564.66;6306875;22;20026;-71
2022/01/01 01:07:29;;;;;;;8.07;3.90;;;;;;;11.16;87.35;101563.22;6306790;22;20021;-71
2022/01/01 01:10:33;;;;;;;10.52;3.75;;;;;;;11.16;87.36;101565.84;6306574;22;20100;-71
2022/01/01 01:13:38;;;;;;;10.13;3.22;;;;;;;11.14;87.62;101573.78;6305467;22;20023;-71
2022/01/01 01:16:41;;;;;;;9.80;3.90;;;;;;;11.18;87.24;101570.13;6306693;22;20026;-72
2022/01/01 01:19:45;;;;;;;10.63;3.53;;;;;;;11.01;87.88;101572.53;6305629;22;20084;-71
2022/01/01 01:22:48;;;;;;;6.55;3.10;;;;;;;10.96;88.14;101577.06;6306637;22;20068;-71
2022/01/01 01:25:54;;;;;;;11.52;3.42;;;;;;;10.94;88.01;101579.75;6306634;22;20145;-71
2022/01/01 01:28:58;;;;;;;12.80;3.20;;;;;;;10.87;87.77;101580.88;6306665;22;20021;-71
2022/01/01 01:32:01;;;;;;;6.85;2.83;;;;;;;10.88;87.69;101580.00;6306572;22;20050;-71
2022/01/01 01:35:06;;;;;;;5.93;2.97;;;;;;;10.91;88.21;101585.13;6306394;22;20046;-71
2022/01/01 01:38:09;;;;;;;6.15;2.97;;;;;;;10.52;88.87;101583.91;6306587;22;20049;-71
2022/01/01 01:41:13;;;;;;;;;;;;;;;10.57;88.92;101592.47;6307145;22;20098;-71
2022/01/01 01:44:26;;;;;;;5.63;2.40;;;;;;;10.57;89.04;101589.84;6306610;22;19918;-71
2022/01/01 01:47:36;;;;;;;9.18;2.95;;;;;;;10.60;88.53;101597.59;6306545;22;20022;-71
2022/01/01 01:50:39;;;;;;;10.45;3.13;;;;;;;10.48;89.13;101586.63;6307773;22;20463;-71
2022/01/01 01:53:42;;;;;;;;;;;;;;;10.47;89.05;101592.78;6308861;22;20124;-71
2022/01/01 01:56:46;;;;;;;10.32;2.65;;;;;;;10.45;88.89;101591.13;6308264;22;20247;-71
2022/01/01 01:59:51;;;;;;;10.07;3.45;;;;;;;10.42;88.87;101592.06;6308303;22;20402;-71
2022/01/01 02:02:54;;;;;;;7.13;3.30;;;;;;;10.32;89.67;101588.06;6308293;22;20054;-71
2022/01/01 02:05:58;;;;;;;8.85;3.28;;;;;;;10.44;88.87;101592.03;6308259;22;20068;-71
2022/01/01 02:09:02;;;;;;;8.07;3.08;;;;;;;10.44;88.53;101589.41;6308211;22;20104;-71
2022/01/01 02:12:07;;;;;;;7.78;3.85;;;;;;;10.42;88.43;101596.44;6308230;22;20106;-71
2022/01/01 02:15:25;;;;;;;8.82;3.00;;;;;;;10.36;88.46;101600.13;6308086;22;20081;-71
2022/01/01 02:18:28;;;;;;;9.70;3.00;;;;;;;10.32;88.87;101590.69;6307132;22;20686;-71
2022/01/01 02:21:31;;;;;;;6.85;3.10;;;;;;;10.32;88.89;101593.31;6308115;22;20376;-71
2022/01/01 02:24:34;;;;;;;;;;;;;;;10.43;88.66;101592.91;6308581;22;20121;-71
2022/01/01 02:27:39;;;;;;;9.90;3.03;;;;;;;10.46;88.37;101593.69;6308115;22;20374;-71
2022/01/01 02:30:42;;;;;;;6.10;2.88;;;;;;;10.38;88.42;101593.09;6308059;22;20471;-71
2022/01/01 02:33:45;;;;;;;10.23;2.97;;;;;;;10.36;88.33;101594.91;6306769;22;20022;-71
2022/01/01 02:36:49;;;;;;;5.75;2.70;;;;;;;10.22;88.95;101591.88;6308056;22;20026;-71
2022/01/01 02:39:52;;;;;;;13.20;3.10;;;;;;;10.24;88.92;101595.28;6307891;22;20022;-71
2022/01/01 02:42:55;;;;;;;;;;;;;;;10.29;89.26;101588.19;6308406;22;20054;-71
2022/01/01 02:45:58;;;;;;;8.40;3.38;;;;;;;10.27;89.05;101587.34;6307877;22;19953;-71
2022/01/01 02:49:03;;;;;;;8.77;4.03;;;;;;;10.25;89.50;101591.78;6307744;22;20066;-71
2022/01/01 02:52:07;;;;;;;8.98;3.53;;;;;;;10.26;89.01;101598.72;6307606;22;20048;-71
2022/01/01 02:55:10;;;;;;;11.35;4.10;;;;;;;10.36;88.85;101600.13;6307708;22;20054;-71
2022/01/01 02:58:13;;;;;;;9.35;3.40;;;;;;;10.40;88.59;101595.63;6307744;22;20479;-71
2022/01/01 03:01:18;;;;;;;11.90;3.80;;;;;;;10.28;88.66;101594.31;6307462;22;20026;-71
2022/01/01 03:04:21;;;;;;;8.70;3.72;;;;;;;10.22;88.83;101581.41;6307642;22;20033;-71
2022/01/01 03:07:24;;;;;;;8.25;4.63;;;;;;;10.32;88.41;101603.75;6307646;22;20058;-70
2022/01/01 03:10:27;;;;;;;10.82;4.30;;;;;;;10.25;89.21;101603.06;6307566;22;20579;-71
2022/01/01 03:13:31;;;;;;;10.73;3.95;;;;;;;10.32;89.30;101597.69;6307569;22;20026;-71
2022/01/01 03:16:34;;;;;;;9.23;3.67;;;;;;;10.32;88.93;101598.53;6307539;22;20061;-71
2022/01/01 03:19:38;;;;;;;10.10;3.95;;;;;;;10.25;89.02;101594.38;6307516;22;20072;-71
2022/01/01 03:22:41;;;;;;;8.07;3.92;;;;;;;10.22;89.12;101610.19;6307553;22;20050;-71
2022/01/01 03:25:44;;;;;;;11.75;4.25;;;;;;;10.22;89.25;101610.19;6307487;22;20042;-71
2022/01/01 03:28:48;;;;;;;10.40;3.63;;;;;;;10.27;89.18;101615.25;6307506;22;20094;-72
2022/01/01 03:31:51;;;;;;;;;;;;;;;10.36;88.61;101614.97;6307963;22;20027;-72
2022/01/01 03:34:55;;;;;;;7.23;3.10;;;;;;;10.30;88.27;101610.78;6307350;22;19922;-72
2022/01/01 03:37:58;;;;;;;7.07;3.20;;;;;;;10.13;89.34;101608.72;6307351;22;20595;-71
2022/01/01 03:41:02;;;;;;;9.07;3.30;;;;;;;10.23;89.36;101609.25;6306343;22;20026;-72
2022/01/01 03:44:04;;;;;;;;;;;;;;;10.30;88.86;101610.78;6307868;22;20351;-71
2022/01/01 03:47:11;;;;;;;9.05;3.42;;;;;;;10.29;88.45;101614.31;6307356;22;19914;-71
2022/01/01 03:50:14;;;;;;;8.07;3.08;;;;;;;10.21;88.91;101616.28;6306947;22;20038;-71
2022/01/01 03:53:17;;;;;;;10.00;2.95;;;;;;;10.18;88.83;101605.97;6307220;22;20026;-71
2022/01/01 03:56:20;;;;;;;;;;;;;;;10.26;88.64;101614.41;6307733;22;20535;-70
2022/01/01 03:59:25;;;;;;;9.80;3.30;;;;;;;10.21;88.83;101629.34;6307289;22;20015;-71
2022/01/01 04:02:28;;;;;;;10.73;3.72;;;;;;;10.18;89.23;101626.88;6307099;22;20026;-72
2022/01/01 04:05:35;;;;;;;8.35;3.80;;;;;;;10.15;89.48;101619.13;6306058;22;20510;-71
2022/01/01 04:08:38;;;;;;;10.20;4.03;;;;;;;10.21;89.17;101618.91;6306042;22;20471;-72
2022/01/01 04:11:42;;;;;;;8.27;3.55;;;;;;;10.28;88.67;101623.06;6306676;22;20463;-72
2022/01/01 04:14:46;;;;;;;7.80;4.03;;;;;;;10.34;88.65;101617.63;6306930;22;20025;-72
2022/01/01 04:17:49;;;;;;;14.38;4.45;;;;;;;10.23;88.55;101611.88;6307005;22;20026;-72
2022/01/01 04:20:52;;;;;;;10.20;4.45;;;;;;;10.16;89.08;101626.06;6306951;22;20022;-71
2022/01/01 04:23:56;;;;;;;;;;;;;;;10.01;89.79;101615.19;6307515;22;20026;-72
2022/01/01 04:26:59;;;;;;;8.45;3.35;;;;;;;10.15;89.40;101606.06;6305916;22;19914;-72
2022/01/01 04:30:03;;;;;;;10.95;3.88;;;;;;;10.17;89.33;101612.06;6305898;22;20026;-72
2022/01/01 04:33:05;;;;;;;;;;;;;;;9.92;89.76;101614.63;6307447;22;20026;-71
2022/01/01 04:36:09;;;;;;;9.05;3.35;;;;;;;10.01;89.56;101607.34;6306960;22;19918;-71
2022/01/01 04:39:12;;;;;;;8.90;3.92;;;;;;;10.07;89.57;101616.75;6306902;22;20022;-72
2022/01/01 04:42:16;;;;;;;10.38;4.47;;;;;;;10.04;89.78;101621.22;6306811;22;20066;-71
2022/01/01 04:45:19;;;;;;;;;;;;;;;10.09;89.88;101632.41;6307407;22;20395;-72
2022/01/01 04:48:23;;;;;;;14.52;5.20;;;;;;;10.15;89.85;101629.59;6306736;22;19914;-72
2022/01/01 04:51:26;;;;;;;10.65;3.40;;;;;;;10.04;89.96;101626.44;6305549;22;20045;-72
2022/01/01 04:54:29;;;;;;;7.97;3.08;;;;;;;10.09;89.67;101632.41;6306658;22;20518;-71
2022/01/01 04:57:32;;;;;;;;;;;;;;;10.00;89.98;101639.63;6307302;22;20025;-72
2022/01/01 05:00:35;;;;;;;6.80;3.15;;;;;;;10.00;89.86;101644.00;6306792;22;19913;-72
2022/01/01 05:03:38;;;;;;;;;;;;;;;10.10;89.60;101640.16;6307264;22;20451;-71
2022/01/01 05:06:41;;;;;;;9.93;4.10;;;;;;;10.11;89.92;101631.41;6306789;22;20016;-72
2022/01/01 05:09:44;;;;;;;9.13;3.80;;;;;;;10.01;89.99;101637.84;6306642;22;20030;-72
2022/01/01 05:12:48;;;;;;;7.80;3.85;;;;;;;10.07;89.65;101629.81;6306687;22;20361;-72
2022/01/01 05:15:52;;;;;;;11.18;3.70;;;;;;;10.10;89.47;101628.88;6306576;22;20094;-72
2022/01/01 05:18:55;;;;;;;14.80;4.38;;;;;;;10.12;89.86;101620.09;6306717;22;20479;-71
2022/01/01 05:21:58;;;;;;;16.20;3.70;;;;;;;9.99;89.43;101611.78;6306618;22;20025;-71
2022/01/01 05:25:03;;;;;;;6.75;3.28;;;;;;;9.97;89.60;101623.19;6308575;22;20053;-72
2022/01/01 05:28:06;;;;;;;10.40;3.38;;;;;;;9.96;90.11;101631.94;6308664;22;20076;-72
2022/01/01 05:31:09;;;;;;;9.52;3.90;;;;;;;10.03;89.80;101633.44;6307533;22;20022;-72
2022/01/01 05:34:12;;;;;;;;;;;;;;;10.04;90.11;101621.22;6308961;22;20041;-72
2022/01/01 05:37:16;;;;;;;8.57;3.72;;;;;;;9.99;89.67;101632.69;6308519;22;19914;-71
2022/01/01 05:40:19;;;;;;;;;;;;;;;10.02;89.72;101637.81;6309008;22;20103;-72
2022/01/01 05:43:22;;;;;;;8.50;3.83;;;;;;;10.05;89.64;101631.66;6308406;22;19928;-72
2022/01/01 05:46:25;;;;;;;;;;;;;;;10.10;89.55;101626.25;6309050;22;20019;-72
2022/01/01 05:49:28;;;;;;;11.98;4.07;;;;;;;10.10;89.60;101624.50;6308316;22;19972;-72
2022/01/01 05:52:32;;;;;;;15.13;4.30;;;;;;;10.12;89.37;101619.22;6308392;22;20407;-72
2022/01/01 05:55:35;;;;;;;;;;;;;;;9.93;89.61;101611.97;6308806;22;20026;-72
2022/01/01 05:58:39;;;;;;;12.30;4.85;;;;;;;9.93;90.33;101616.34;6308386;22;19914;-72
2022/01/01 06:01:42;;;;;;;12.30;3.97;;;;;;;10.04;89.88;101618.63;6307205;22;20069;-72
2022/01/01 06:04:45;;;;;;;;;;;;;;;10.11;89.79;101617.50;6308771;22;20018;-72
2022/01/01 06:07:48;;;;;;;8.83;3.90;;;;;;;10.06;90.14;101617.66;6308251;22;19914;-72
2022/01/01 06:10:51;;;;;;;17.60;5.32;;;;;;;10.00;90.26;101623.09;6308248;22;20021;-72
2022/01/01 06:13:54;;;;;;;;;;;;;;;9.88;91.10;101626.09;6308624;22;20403;-72
2022/01/01 06:16:57;;;;;;;10.20;4.78;;;;;;;9.95;90.76;101630.22;6308106;22;19960;-72
2022/01/01 06:20:02;;;;;;;12.65;3.83;;;;;;;9.96;90.70;101638.00;6308160;22;20075;-72
2022/01/01 06:23:06;;;;;;;11.80;4.10;;;;;;;10.02;90.22;101637.81;6308110;22;20083;-72
2022/01/01 06:26:09;;;;;;;15.65;4.30;;;;;;;9.91;90.64;101639.91;6308099;22;20022;-72
2022/01/01 06:29:12;;;;;;;;;;;;;;;9.95;90.75;101641.50;6308604;22;20112;-72
2022/01/01 06:32:16;;;;;;;20.43;4.17;;;;;;;10.02;90.41;101653.50;6308046;22;20034;-72
2022/01/01 06:35:19;;;;;;;13.80;4.38;;;;;;;10.04;90.25;101644.75;6307432;22;20307;-72
2022/01/01 06:38:23;;;;;;;16.80;4.15;;;;;;;9.89;90.59;101652.19;6307979;22;20080;-72
2022/01/01 06:41:26;;;;;;;10.60;3.60;;;;;;;9.94;90.16;101660.72;6307872;22;20345;-72
2022/01/01 06:44:30;;;;;;;8.90;4.03;;;;;;;10.02;90.17;101669.19;6307804;22;20071;-72
2022/01/01 06:47:33;;;;;;;;;;;;;;;9.97;90.74;101678.91;6308417;22;20401;-72
2022/01/01 06:50:37;;;;;;;11.70;5.18;;;;;;;9.98;90.25;101680.59;6306469;22;20352;-72
2022/01/01 06:53:40;;;;;;;10.32;4.82;;;;;;;9.92;90.32;101693.00;6307753;22;20025;-72
2022/01/01 06:56:44;;;;;;;10.25;4.07;;;;;;;9.78;91.07;101690.81;6307708;22;20365;-72
2022/01/01 06:59:47;;;;;;;;;;;;;;;9.91;90.69;101702.59;6308210;22;20532;-72
2022/01/01 07:02:50;;;;;;;10.30;4.60;;;;;;;9.91;90.28;101706.97;6307679;22;19964;-72
2022/01/01 07:05:53;;;;;;;;;;;;;;;9.96;90.38;101708.56;6306653;22;20083;-72
2022/01/01 07:08:57;;;;;;;11.88;4.68;;;;;;;10.01;90.16;101705.78;6306097;22;19968;-72
2022/01/01 07:12:00;;;;;;;14.57;4.63;;;;;;;9.98;90.25;101706.72;6307429;22;20084;-72
2022/01/01 07:15:04;;;;;;;;;;;;;;;9.99;90.07;101711.06;6308030;22;20112;-72
2022/01/01 07:18:08;;;;;;;11.80;4.28;;;;;;;9.96;90.40;101711.16;6307575;22;19964;-72
2022/01/01 07:21:11;;;;;;;;;;;;;;;9.97;90.18;101706.78;6308108;22;20471;-72
2022/01/01 07:24:14;;;;;;;13.02;5.47;;;;;;;10.03;89.99;101696.16;6307520;22;19917;-72
2022/01/01 07:27:21;;;;;;;;;;;;;;;10.04;90.13;101713.53;6285358;22;20026;-71
2022/01/01 07:31:12;;;;;;;30.48;22.27;;;;;;;10.17;89.65;101714.84;6302829;22;19939;-73
2022/01/01 07:34:16;;;;;;;9.95;6.10;;;;;;;10.15;89.34;101718.44;6300439;22;20124;-73
2022/01/01 07:37:20;;;;;;;11.40;4.38;;;;;;;9.98;90.24;101732.88;6302144;22;20026;-72
2022/01/01 07:40:24;;;;;;;130.35;99.68;;;;;;;10.03;90.30;101732.75;6302781;22;20046;-72
2022/01/01 07:43:29;;;;;;;14.82;6.93;;;;;;;10.06;90.20;101734.41;6303274;22;20022;-68
2022/01/01 07:46:33;;;;;;;6.72;3.40;;;;;;;10.12;89.64;101742.06;6301917;22;20018;-71
2022/01/01 07:49:36;;;;;;;8.43;3.92;;;;;;;10.06;89.76;101747.47;6296538;22;20034;-67
2022/01/01 07:52:40;;;;;;;6.35;4.30;;;;;;;10.00;90.33;101744.13;6297526;22;20041;-68
2022/01/01 07:55:43;;;;;;;12.50;3.88;;;;;;;9.86;90.68;101743.72;6297166;22;20350;-66
2022/01/01 07:58:46;;;;;;;;;;;;;;;10.01;90.68;101744.97;6298841;22;20030;-67
2022/01/01 08:01:49;;;;;;;22.38;14.05;;;;;;;10.14;90.45;101745.47;6297816;22;19988;-68
2022/01/01 08:04:53;;;;;;;10.73;4.72;;;;;;;10.07;90.20;101741.34;6297813;22;20094;-68
2022/01/01 08:07:56;;;;;;;11.60;6.50;;;;;;;10.10;90.33;101744.72;6296669;22;20026;-69
2022/01/01 08:11:00;;;;;;;;;;;;;;;10.07;90.38;101746.56;6298784;22;20026;-66
2022/01/01 08:14:03;;;;;;;9.75;4.35;;;;;;;10.12;90.15;101742.91;6297988;22;19913;-67
2022/01/01 08:17:07;;;;;;;9.68;4.95;;;;;;;10.25;89.87;101738.16;6298298;22;20479;-67
2022/01/01 08:20:11;;;;;;;7.90;4.00;;;;;;;10.21;89.78;101742.63;6299248;22;20436;-83
2022/01/01 08:23:15;;;;;;;9.00;3.92;;;;;;;10.23;89.54;101726.88;6299020;22;20026;-66
2022/01/01 08:26:18;;;;;;;14.90;3.22;;;;;;;10.13;90.24;101728.09;6298638;22;20013;-66
2022/01/01 08:29:23;;;;;;;11.77;4.85;;;;;;;10.14;90.41;101740.25;6297857;22;20023;-66
2022/01/01 08:32:26;;;;;;;10.75;4.82;;;;;;;10.13;90.72;101733.31;6297865;22;20578;-69
2022/01/01 08:35:33;;;;;;;13.43;4.05;;;;;;;10.09;91.17;101734.31;6296812;22;20411;-67
2022/01/01 08:38:36;;;;;;;16.75;5.00;;;;;;;10.17;90.88;101724.47;6297019;22;20396;-67
2022/01/01 08:41:43;;;;;;;14.93;5.80;;;;;;;10.23;90.91;101729.50;6298934;22;20030;-66
2022/01/01 08:44:48;;;;;;;15.55;9.50;;;;;;;10.33;90.20;101736.16;6297696;22;20077;-66
2022/01/01 08:47:52;;;;;;;18.33;9.90;;;;;;;10.35;90.07;101733.53;6298206;22;20023;-69
2022/01/01 08:51:21;;;;;;;13.90;5.15;;;;;;;10.34;90.40;101742.25;6296317;22;20365;-74
2022/01/01 08:54:25;;;;;;;27.23;17.33;;;;;;;10.27;90.52;101733.75;6297897;22;20026;-75
2022/01/01 08:57:32;;;;;;;21.92;12.10;;;;;;;10.41;90.02;101721.09;6298982;22;20369;-76
2022/01/01 09:00:38;;;;;;;22.85;10.38;;;;;;;10.38;90.13;101729.03;6300512;22;20076;-75
2022/01/01 09:03:42;;;;;;;14.23;8.05;;;;;;;10.38;90.24;101721.22;6280322;22;20720;-75
2022/01/01 09:06:48;;;;;;;8.32;4.55;;;;;;;10.31;90.62;101721.47;6300067;22;20030;-76
2022/01/01 09:09:59;;;;;;;10.05;5.63;;;;;;;10.38;90.36;101718.59;6300068;22;20535;-74
2022/01/01 09:13:03;;;;;;;13.40;8.52;;;;;;;10.30;90.97;101723.19;6298058;22;20077;-71
2022/01/01 09:16:08;;;;;;;;;;;;;;;10.21;91.64;101728.69;6298649;22;20029;-74
2022/01/01 09:19:11;;;;;;;14.60;7.45;;;;;;;10.11;92.46;101727.25;6298033;22;19990;-74
2022/01/01 09:22:15;;;;;;;17.73;8.80;;;;;;;10.11;92.75;101735.94;6300632;22;20454;-74
2022/01/01 09:25:19;;;;;;;34.03;7.85;;;;;;;10.23;92.56;101735.56;6300602;22;20473;-72
2022/01/01 09:28:26;;;;;;;48.28;31.83;;;;;;;10.35;92.49;101744.84;6300564;22;20030;-72
2022/01/01 09:31:31;;;;;;;18.70;10.13;;;;;;;10.46;91.54;101739.25;6299960;22;20546;-73
2022/01/01 09:34:34;;;;;;;9.00;5.68;;;;;;;10.47;91.22;101738.38;6299111;22;20290;-69
2022/01/01 09:37:37;;;;;;;11.13;6.82;;;;;;;10.54;90.80;101731.16;6298338;22;20026;-77
2022/01/01 09:40:41;;;;;;;12.88;9.27;;;;;;;10.56;90.96;101731.94;6299573;22;20097;-74
2022/01/01 09:43:44;;;;;;;;;;;;;;;10.62;90.48;101732.59;6301262;22;20099;-75
2022/01/01 09:46:50;;;;;;;15.52;5.97;;;;;;;10.44;91.51;101738.47;6299922;22;19917;-72
2022/01/01 09:49:53;;;;;;;17.95;10.65;;;;;;;10.48;91.29;101730.47;6300462;22;20122;-72
2022/01/01 09:52:57;;;;;;;15.73;10.25;;;;;;;10.49;91.69;101731.31;6268635;22;20030;-73
2022/01/01 09:56:03;;;;;;;13.18;8.65;;;;;;;10.52;91.98;101738.19;6268299;22;20081;-72
2022/01/01 09:59:06;;;;;;;22.40;10.68;;;;;;;10.62;91.35;101736.97;6268485;22;20026;-73
2022/01/01 10:02:09;;;;;;;11.75;6.63;;;;;;;10.56;91.83;101738.06;6267744;22;20073;-83
2022/01/01 10:05:13;;;;;;;9.32;6.10;;;;;;;10.51;92.43;101739.97;6269807;22;20027;-73
2022/01/01 10:08:24;;;;;;;15.30;8.45;;;;;;;10.70;91.66;101735.84;6269243;22;20024;-72
2022/01/01 10:15:44;;;;;;;10.95;7.78;;;;;;;10.89;90.39;101738.69;6266847;22;20395;-70
2022/01/01 10:19:19;;;;;;;9.68;5.28;;;;;;;10.91;90.27;101744.72;6268246;22;20089;-75
2022/01/01 10:22:24;;;;;;;13.85;7.95;;;;;;;10.97;90.89;101742.78;6209618;22;20027;-74
2022/01/01 10:29:17;;;;;;;;;;;;;;;10.98;90.54;101734.06;6269143;22;20096;-73
2022/01/01 10:32:20;;;;;;;19.52;11.63;;;;;;;11.07;90.27;101725.84;6268495;22;19918;-71
2022/01/01 10:35:24;;;;;;;19.45;12.73;;;;;;;11.08;90.12;101731.06;6268325;22;20158;-71
2022/01/01 10:38:30;;;;;;;23.17;11.27;;;;;;;11.11;90.31;101730.09;6267098;22;20353;-74
2022/01/01 10:41:44;;;;;;;19.05;9.68;;;;;;;11.29;89.48;101723.34;6267633;22;20041;-70
2022/01/01 10:44:51;;;;;;;15.85;9.82;;;;;;;11.42;88.70;101719.34;6267307;22;20069;-71
2022/01/01 10:48:04;;;;;;;16.65;10.48;;;;;;;11.50;88.07;101717.31;6268171;22;20397;-68
2022/01/01 10:51:10;;;;;;;56.40;44.78;;;;;;;11.56;88.56;101719.72;6282946;22;20021;-66
2022/01/01 10:54:24;;;;;;;21.45;16.40;;;;;;;11.61;88.49;101716.91;6300504;22;20034;-68
2022/01/01 10:57:28;;;;;;;17.40;8.02;;;;;;;11.49;88.58;101720.00;6301356;22;20030;-66
2022/01/01 11:00:39;;;;;;;11.43;8.32;;;;;;;11.41;85.47;101728.97;6301508;22;20065;-67
2022/01/01 11:08:14;;;;;;;11.02;6.35;;;;;;;11.79;87.44;101723.22;6300359;22;20025;-67
2022/01/01 11:11:17;;;;;;;9.80;5.78;;;;;;;11.82;87.15;101717.88;6299369;22;20071;-67
2022/01/01 11:14:21;;;;;;;10.02;6.38;;;;;;;11.85;86.63;101715.16;6299600;22;20024;-67
2022/01/01 11:17:25;;;;;;;16.63;12.10;;;;;;;11.84;83.84;101706.47;6300867;22;20077;-67
2022/01/01 11:20:34;;;;;;;15.05;11.43;;;;;;;11.98;82.52;101715.53;6300341;22;20352;-64
2022/01/01 11:23:40;;;;;;;8.48;5.40;;;;;;;11.93;81.63;101709.63;6300101;22;20091;-64
2022/01/01 11:26:44;;;;;;;9.15;5.63;;;;;;;12.08;84.26;101701.16;6300783;22;20384;-65
2022/01/01 11:29:51;;;;;;;11.00;5.43;;;;;;;12.12;84.41;101694.88;6303176;22;20022;-64
2022/01/01 11:33:05;;;;;;;11.32;7.00;;;;;;;12.13;82.36;101695.75;6303492;22;20072;-66
2022/01/01 11:36:18;;;;;;;8.02;4.78;;;;;;;12.08;81.03;101686.28;6302562;22;20022;-64
2022/01/01 11:39:24;;;;;;;8.80;5.25;;;;;;;12.18;80.94;101693.78;6300729;22;20038;-64
2022/01/01 11:42:27;;;;;;;6.60;4.00;;;;;;;12.22;81.05;101682.25;6302745;22;20026;-65
2022/01/01 11:45:45;;;;;;;7.88;4.28;;;;;;;12.23;80.13;101674.31;6301816;22;20022;-64
2022/01/01 11:48:50;;;;;;;7.47;4.82;;;;;;;12.27;80.25;101665.41;6301192;22;20076;-64
2022/01/01 11:51:57;;;;;;;10.60;5.28;;;;;;;12.31;80.25;101661.72;6301096;22;20030;-64
2022/01/01 11:55:05;;;;;;;9.07;5.75;;;;;;;12.39;80.81;101655.34;6302963;22;20089;-64
2022/01/01 11:58:11;;;;;;;7.97;3.45;;;;;;;12.24;79.58;101647.19;6303236;22;20099;-64
2022/01/01 12:01:17;;;;;;;6.20;3.63;;;;;;;12.25;80.04;101637.53;6302999;22;20022;-64
2022/01/01 12:04:24;;;;;;;9.50;4.32;;;;;;;12.34;80.16;101643.25;6303609;22;20395;-64
2022/01/01 12:07:29;;;;;;;12.85;4.65;;;;;;;12.33;77.98;101644.16;6302413;22;20306;-64
2022/01/01 12:10:37;;;;;;;6.43;4.10;;;;;;;12.13;78.76;101638.91;6302505;22;20065;-64
2022/01/01 12:13:40;;;;;;;6.50;3.40;;;;;;;12.10;78.23;101639.03;6302379;22;20042;-64
2022/01/01 12:16:50;;;;;;;7.18;3.83;;;;;;;12.22;78.24;101638.53;6301934;22;20120;-64
2022/01/01 12:19:56;;;;;;;8.30;3.72;;;;;;;12.23;78.55;101634.16;6302138;22;20033;-64
2022/01/01 12:23:09;;;;;;;8.00;3.88;;;;;;;12.22;78.24;101633.28;6301880;22;20061;-64
2022/01/01 12:26:14;;;;;;;5.88;3.03;;;;;;;12.32;77.38;101626.75;6301733;22;20077;-64
2022/01/01 12:29:22;;;;;;;6.95;2.85;;;;;;;12.34;76.84;101611.78;6302138;22;20025;-64
2022/01/01 12:32:44;;;;;;;7.35;2.83;;;;;;;12.30;77.80;101622.47;6301467;22;20073;-64
2022/01/01 12:35:52;;;;;;;5.68;2.53;;;;;;;12.13;78.10;101612.69;6301912;22;20025;-64
2022/01/01 12:38:58;;;;;;;7.97;2.60;;;;;;;12.24;77.75;101612.25;6302788;22;20280;-64
2022/01/01 12:42:31;;;;;;;5.60;2.65;;;;;;;12.21;77.22;101615.00;6302267;22;20505;-64
2022/01/01 12:45:35;;;;;;;9.55;4.05;;;;;;;12.27;76.81;101594.59;6300956;22;20022;-64
2022/01/01 12:48:40;;;;;;;7.80;3.70;;;;;;;12.23;76.48;101597.44;6302090;22;20140;-64
2022/01/01 12:51:44;;;;;;;9.88;3.42;;;;;;;12.37;77.23;101600.31;6302453;22;20088;-65
2022/01/01 12:54:49;;;;;;;7.60;3.35;;;;;;;12.41;76.92;101591.41;6303029;22;20128;-64
2022/01/01 12:58:08;;;;;;;12.40;3.63;;;;;;;12.32;77.13;101579.53;6303952;22;20077;-64
2022/01/01 13:01:15;;;;;;;10.63;3.15;;;;;;;12.29;77.56;101582.28;6302811;22;20030;-64
2022/01/01 13:04:25;;;;;;;10.07;3.45;;;;;;;12.37;77.92;101578.47;6301655;22;20054;-64
2022/01/01 13:07:29;;;;;;;8.65;5.60;;;;;;;12.29;78.11;101566.56;6301633;22;20068;-64
2022/01/01 13:10:33;;;;;;;4.65;2.72;;;;;;;12.28;77.07;101562.25;6301834;22;20068;-64
2022/01/01 13:13:37;;;;;;;4.25;2.53;;;;;;;12.31;77.33;101551.59;6302368;22;20025;-64
2022/01/01 13:16:40;;;;;;;5.43;2.90;;;;;;;12.24;77.62;101547.53;6302402;22;20402;-64
2022/01/01 13:19:43;;;;;;;5.45;2.10;;;;;;;12.28;77.32;101543.88;6301821;22;20102;-64
2022/01/01 13:22:46;;;;;;;5.85;2.72;;;;;;;12.32;77.28;101540.19;6302393;22;20121;-64
2022/01/01 13:25:51;;;;;;;;;;;;;;;12.39;77.12;101534.69;6302592;22;20026;-64
2022/01/01 13:28:55;;;;;;;5.25;2.47;;;;;;;12.36;77.11;101537.44;6301841;22;19936;-64
2022/01/01 13:31:59;;;;;;;5.88;2.40;;;;;;;12.39;77.05;101540.78;6300375;22;20081;-64
2022/01/01 13:35:04;;;;;;;6.82;2.67;;;;;;;12.41;77.16;101538.94;6302380;22;20114;-64
2022/01/01 13:38:10;;;;;;;9.75;5.70;;;;;;;12.34;77.43;101538.34;6302508;22;20058;-64
2022/01/01 13:41:14;;;;;;;5.90;3.00;;;;;;;12.27;76.83;101536.91;6302799;22;20021;-64
2022/01/01 13:44:26;;;;;;;;;;;;;;;12.29;77.37;101536.84;6302787;22;20022;-64
2022/01/01 13:47:31;;;;;;;6.38;3.22;;;;;;;12.25;77.20;101538.75;6303614;22;20542;-64
2022/01/01 13:50:40;;;;;;;5.55;2.58;;;;;;;12.28;77.41;101546.50;6303433;22;20045;-64
2022/01/01 13:53:43;;;;;;;4.78;1.63;;;;;;;12.49;76.55;101543.84;6303633;22;20080;-64
2022/01/01 13:56:53;;;;;;;5.05;2.75;;;;;;;12.67;75.68;101540.41;6303386;22;20042;-64
2022/01/01 13:59:58;;;;;;;8.27;2.78;;;;;;;12.53;75.67;101538.38;6303660;22;20398;-64
2022/01/01 14:03:03;;;;;;;8.50;3.08;;;;;;;12.61;76.21;101535.44;6303237;22;20076;-64
2022/01/01 14:06:06;;;;;;;7.55;3.92;;;;;;;12.61;77.13;101537.22;6303729;22;20022;-64
2022/01/01 14:09:10;;;;;;;11.15;6.80;;;;;;;12.41;77.37;101524.97;6304249;22;20068;-64
2022/01/01 14:12:13;;;;;;;7.43;3.58;;;;;;;12.42;77.70;101524.06;6304154;22;20054;-64
2022/01/01 14:15:19;;;;;;;5.68;2.75;;;;;;;12.46;79.22;101526.47;6303220;22;20026;-64
2022/01/01 14:18:30;;;;;;;8.02;4.18;;;;;;;12.39;79.62;101532.06;6303526;22;20042;-64
2022/01/01 14:21:33;;;;;;;12.95;3.13;;;;;;;12.26;81.13;101535.22;6303654;22;20508;-64
2022/01/01 14:24:52;;;;;;;4.95;2.13;;;;;;;12.21;81.42;101529.31;6303610;22;20072;-64
2022/01/01 14:28:07;;;;;;;5.10;2.20;;;;;;;12.15;81.65;101526.94;6303999;22;20053;-64
2022/01/01 14:31:10;;;;;;;7.88;2.22;;;;;;;12.10;82.10;101528.94;6303410;22;20349;-64
2022/01/01 14:34:15;;;;;;;7.15;3.15;;;;;;;12.05;81.90;101530.88;6304119;22;20042;-64
2022/01/01 14:37:19;;;;;;;7.47;2.65;;;;;;;11.99;82.25;101531.13;6302622;22;20114;-64
2022/01/01 14:40:24;;;;;;;5.30;2.33;;;;;;;11.73;83.30;101540.06;6303427;22;20038;-64